Terminal Aerodrome Forecast
Issued by NWS

Home | Current Version | Previous Version | Text Only | Print | Product List | Glossary On
Versions: 1 2 3 4 5 6 7 8 9 10 11 12 13 14
000
FTUS44 KLIX 300522
TAFGPT
TAF
KGPT 300522Z 3006/3106 18007KT P6SM FEW030
     FM301000 VRB03KT 5SM BR SCT025
     FM301400 26009KT P6SM SCT022 BKN030
     FM302000 23012KT P6SM VCTS BKN040CB BKN250
     FM310100 19008KT P6SM SCT035 BKN250=

USA.gov is the U.S. government's official web portal to all federal, state and local government web resources and services.